Details From LEST - Santiago
To LEAS - Asturias
Flight Number -
Tags generated
Created
Modified
Stats Distance 112 nm / 207 km
Max Altitude 3,300 ft / 1,006 m
Waypoints 3
Social Downloads 1
Likes 0
Share VATSIM

Download

Looking for another format? Having issues loading an existing format? Contact us
Advertisement - Login to hide

Notes

Basic altitude profile: - Ascent Rate: 2500ft/min - Ascent Speed: 250kts - Cruise Altitude: 35000ft - Cruise Speed: 420kts - Descent Rate: 1500ft/min - Descent Speed: 250kts Options: - Use NATs: yes - Use PACOTS: yes - Use low airways: yes - Use high airways: yes

Route

LEST LURIM LEAS

ID Type Via Altitude Latitude Longitude Leg Dist Tot Dist Heading (true) Name
O LEST APT - 0 ft / 0 m 42.89780˚ -8.41569˚ - 0 nm - Santiago
LURIM FIX - 3,300 ft / 1,006 m 43.47638˚ -6.37662˚ 95 nm 95 nm 68° / 69° -
O LEAS APT - 0 ft / 0 m 43.56350˚ -6.03467˚ 15 nm 111 nm 71° / 71° Asturias

Altitude Profile

Advertisement - Login to hide

LEST

Details ICAO LEST (SCQ)
Name Santiago
Region Spain
Timezone Europe/Madrid (UTC+1.0)
Stats Elevation 1,169 ft / 356 m (AMSL)
Location 42.897797° -8.415691°
Runways 1
Magnetic Variation 2.370° W

METAR

LEST 161130Z VRB01KT 9999 2000SE BCFG FEW001 SCT043 07/06 Q1027 TEMPO NSW

Decode

TAF

TAF TAF LEST 160500Z 1606/1706 VRB04KT 9999 SCT025 TX09/1614Z TN01/1607Z PROB40 TEMPO 1606/1608 3000 BR PROB30 TEMPO 1606/1608 0800 BCFG TEMPO 1612/1624 03010KT

Decode

Departure Runways

ID Width Length Bearing (true) Bearing (mag) Surface Threshold Offset Overrun Length
17 148 ft / 45 m 10,509 ft / 3,203 m 166.04° 168.41° Asphalt 394 ft / 120 m 0 ft / 0 m
35 148 ft / 45 m 10,509 ft / 3,203 m 346.05° 348.42° Asphalt 0 ft / 0 m 197 ft / 60 m

LEAS

Details ICAO LEAS (OVD)
Name Asturias
Region Spain
Timezone Europe/Madrid (UTC+1.0)
Stats Elevation 416 ft / 127 m (AMSL)
Location 43.563496° -6.034670°
Runways 1
Magnetic Variation 1.628° W

METAR

LEAS 161130Z VRB02KT 9999 FEW035 SCT050 10/06 Q1026 NOSIG

Decode

TAF

TAF LEAS 160800Z 1609/1709 27008KT 9000 SCT025 BKN050 TX11/1614Z TN05/1706Z TEMPO 1609/1611 RA PROB30 TEMPO 1609/1621 RA

Decode

Destination Runways

ID Width Length Bearing (true) Bearing (mag) Surface Threshold Offset Overrun Length
11 148 ft / 45 m 7,216 ft / 2,200 m 108.09° 109.72° Asphalt 0 ft / 0 m 164 ft / 50 m
29 148 ft / 45 m 7,216 ft / 2,200 m 288.10° 289.73° Asphalt 0 ft / 0 m 164 ft / 50 m

Approach Navaids

Runway Type Ident Frequency Range Bearing (true) Bearing (mag) Slope Elevation
29 Localiser AVS 110.10 MHz 18 nm / 33 km 288.30° 289.92° - 416 ft / 127 m (AMSL)
29 Glidescope AVS 110.10 MHz 10 nm / 19 km 288.09° 289.72° 3.00° 416 ft / 127 m (AMSL)
29 DME AVS 110.10 MHz 18 nm / 33 km - - - 430 ft / 131 m (AMSL)

Popular Alternatives